createdAt,value
2018-08-23T00:00:43.559Z,21.10
2018-08-23T00:03:46.971Z,20.89
2018-08-23T00:06:55.581Z,20.82
2018-08-23T00:10:01.487Z,20.94
2018-08-23T00:13:07.023Z,21.03
2018-08-23T00:16:10.395Z,20.84
2018-08-23T00:19:13.821Z,20.67
2018-08-23T00:22:22.458Z,20.64
2018-08-23T00:25:25.720Z,20.61
2018-08-23T00:28:28.920Z,20.52
2018-08-23T00:31:36.375Z,20.51
2018-08-23T00:34:40.686Z,20.43
2018-08-23T00:37:43.913Z,20.42
2018-08-23T00:40:47.096Z,20.51
2018-08-23T00:43:50.366Z,20.51
2018-08-23T00:46:55.252Z,20.61
2018-08-23T00:49:58.533Z,20.55
2018-08-23T00:53:01.817Z,20.36
2018-08-23T00:56:20.160Z,20.41
2018-08-23T00:59:23.341Z,20.34
2018-08-23T01:02:26.494Z,20.24
2018-08-23T01:05:35.194Z,20.21
2018-08-23T01:08:38.426Z,20.29
2018-08-23T01:11:41.606Z,20.21
2018-08-23T01:14:44.795Z,20.35
2018-08-23T01:17:48.477Z,20.27
2018-08-23T01:20:52.567Z,20.05
2018-08-23T01:23:55.737Z,19.96
2018-08-23T01:26:58.929Z,19.94
2018-08-23T01:30:02.111Z,20.03
2018-08-23T01:33:05.404Z,20.00
2018-08-23T01:36:08.588Z,19.80
2018-08-23T01:39:12.286Z,19.86
2018-08-23T01:42:16.934Z,19.98
2018-08-23T01:45:20.111Z,20.00
2018-08-23T01:48:23.265Z,19.99
2018-08-23T01:51:26.478Z,19.97
2018-08-23T01:54:29.628Z,19.86
2018-08-23T01:57:35.495Z,19.88
2018-08-23T02:00:38.686Z,19.85
2018-08-23T02:03:41.940Z,19.76
2018-08-23T02:06:45.171Z,19.77
2018-08-23T02:09:48.342Z,19.82
2018-08-23T02:12:53.676Z,19.82
2018-08-23T02:15:58.654Z,19.79
2018-08-23T02:19:01.804Z,19.72
2018-08-23T02:22:04.994Z,19.74
2018-08-23T02:25:08.333Z,19.69
2018-08-23T02:28:12.806Z,19.62
2018-08-23T02:31:16.037Z,19.60
2018-08-23T02:34:19.210Z,19.55
2018-08-23T02:37:22.403Z,19.66
2018-08-23T02:40:25.563Z,19.49
2018-08-23T02:43:28.833Z,19.58
2018-08-23T02:46:32.139Z,19.46
2018-08-23T02:49:35.348Z,19.49
2018-08-23T02:52:38.647Z,19.52
2018-08-23T02:55:45.986Z,19.47
2018-08-23T02:58:58.025Z,19.37
2018-08-23T03:02:01.185Z,19.44
2018-08-23T03:05:04.635Z,19.29
2018-08-23T03:08:07.809Z,19.30
2018-08-23T03:11:11.090Z,19.23
2018-08-23T03:14:14.495Z,19.35
2018-08-23T03:17:26.687Z,19.39
2018-08-23T03:20:29.922Z,19.42
2018-08-23T03:23:33.087Z,19.34
2018-08-23T03:26:36.373Z,19.26
2018-08-23T03:29:39.588Z,19.14
2018-08-23T03:32:42.833Z,19.16
2018-08-23T03:35:46.965Z,19.24
2018-08-23T03:38:50.159Z,19.13
2018-08-23T03:41:53.332Z,19.10
2018-08-23T03:44:58.438Z,19.05
2018-08-23T03:48:01.622Z,19.19
2018-08-23T03:51:04.805Z,18.96
2018-08-23T03:54:08.010Z,19.01
2018-08-23T03:57:15.943Z,18.85
2018-08-23T04:00:24.333Z,18.51
2018-08-23T04:03:27.531Z,18.87
2018-08-23T04:06:32.247Z,18.85
2018-08-23T04:09:35.501Z,18.90
2018-08-23T04:12:41.268Z,18.55
2018-08-23T04:15:44.499Z,18.53
2018-08-23T04:18:47.725Z,18.51
2018-08-23T04:21:50.904Z,18.62
2018-08-23T04:24:57.142Z,18.54
2018-08-23T04:28:00.366Z,18.52
2018-08-23T04:31:04.550Z,18.60
2018-08-23T04:34:08.432Z,18.37
2018-08-23T04:37:11.642Z,18.47
2018-08-23T04:40:14.817Z,18.47
2018-08-23T04:43:18.159Z,18.62
2018-08-23T04:46:22.275Z,18.43
2018-08-23T04:49:25.505Z,18.48
2018-08-23T04:52:28.738Z,18.66
2018-08-23T04:55:31.949Z,18.46
2018-08-23T04:58:35.205Z,18.50
2018-08-23T05:01:39.411Z,18.40
2018-08-23T05:04:42.760Z,18.47
2018-08-23T05:07:45.923Z,18.40
2018-08-23T05:10:49.135Z,18.41
2018-08-23T05:13:52.362Z,18.59
2018-08-23T05:16:55.502Z,18.52
2018-08-23T05:19:58.814Z,18.52
2018-08-23T05:23:04.565Z,18.64
2018-08-23T05:26:13.387Z,18.79
2018-08-23T05:29:17.768Z,19.13
2018-08-23T05:32:21.004Z,19.24
2018-08-23T05:35:24.248Z,19.31
2018-08-23T05:38:27.384Z,19.30
2018-08-23T05:41:30.595Z,19.25
2018-08-23T05:44:33.856Z,19.32
2018-08-23T05:47:37.097Z,19.25
2018-08-23T05:50:40.295Z,19.41
2018-08-23T05:53:49.442Z,19.53
2018-08-23T05:56:52.755Z,19.61
2018-08-23T05:59:56.026Z,19.69
2018-08-23T06:02:59.187Z,19.74
2018-08-23T06:06:02.450Z,19.91
2018-08-23T06:09:23.597Z,20.03
2018-08-23T06:12:30.986Z,20.08
2018-08-23T06:15:38.384Z,20.23
2018-08-23T06:18:41.623Z,20.23
2018-08-23T06:21:44.905Z,20.35
2018-08-23T06:24:48.088Z,20.45
2018-08-23T06:27:51.332Z,20.57
2018-08-23T06:30:56.908Z,20.63
2018-08-23T06:34:00.138Z,20.70
2018-08-23T06:37:03.282Z,20.79
2018-08-23T06:40:07.365Z,20.88
2018-08-23T06:43:10.536Z,20.94
2018-08-23T06:46:13.870Z,21.09
2018-08-23T06:49:16.971Z,21.19
2018-08-23T06:52:35.807Z,21.30
2018-08-23T06:55:39.065Z,21.40
2018-08-23T06:58:42.233Z,21.51
2018-08-23T07:01:47.473Z,21.63
2018-08-23T07:04:50.645Z,21.78
2018-08-23T07:07:53.830Z,21.92
2018-08-23T07:11:04.329Z,22.07
2018-08-23T07:14:12.551Z,22.18
2018-08-23T07:17:21.119Z,22.36
2018-08-23T07:20:24.280Z,22.50
2018-08-23T07:23:31.654Z,22.64
2018-08-23T07:26:34.868Z,22.81
2018-08-23T07:29:38.320Z,23.00
2018-08-23T07:32:42.322Z,23.29
2018-08-23T07:35:46.269Z,23.50
2018-08-23T07:38:50.307Z,23.80
2018-08-23T07:41:53.429Z,24.08
2018-08-23T07:44:57.264Z,24.33
2018-08-23T07:48:00.527Z,24.57
2018-08-23T07:51:10.928Z,24.77
2018-08-23T07:54:18.094Z,25.05
2018-08-23T07:57:21.483Z,25.19
2018-08-23T08:00:43.466Z,25.34
2018-08-23T08:03:46.840Z,25.47
2018-08-23T08:06:50.145Z,25.76
2018-08-23T08:09:53.363Z,25.97
2018-08-23T08:12:56.674Z,26.15
2018-08-23T08:16:10.395Z,26.37
2018-08-23T08:19:13.662Z,26.66
2018-08-23T08:22:16.859Z,26.73
2018-08-23T08:25:20.297Z,27.03
2018-08-23T08:28:24.934Z,27.18
2018-08-23T08:31:29.277Z,27.42
2018-08-23T08:34:34.592Z,27.75
2018-08-23T08:37:55.116Z,27.89
2018-08-23T08:41:01.300Z,28.17
2018-08-23T08:44:09.026Z,28.45
2018-08-23T08:47:13.568Z,28.55
2018-08-23T08:50:17.148Z,28.55
2018-08-23T08:53:20.430Z,28.88
2018-08-23T08:56:25.239Z,29.16
2018-08-23T08:59:29.618Z,29.22
2018-08-23T09:02:33.159Z,29.45
2018-08-23T09:05:36.388Z,29.66
2018-08-23T09:08:39.922Z,29.96
2018-08-23T09:11:43.136Z,30.13
2018-08-23T09:14:46.404Z,30.26
2018-08-23T09:17:50.219Z,30.27
2018-08-23T09:20:56.653Z,30.56
2018-08-23T09:24:12.970Z,30.73
2018-08-23T09:27:18.676Z,31.02
2018-08-23T09:30:26.780Z,31.19
2018-08-23T09:33:30.056Z,31.20
2018-08-23T09:36:33.310Z,31.40
2018-08-23T09:39:36.526Z,31.37
2018-08-23T09:42:39.730Z,31.22
2018-08-23T09:45:42.910Z,31.12
2018-08-23T09:48:46.050Z,31.19
2018-08-23T09:51:49.363Z,31.36
2018-08-23T09:54:53.953Z,31.46
2018-08-23T09:57:57.979Z,31.49
2018-08-23T10:01:06.632Z,31.54
2018-08-23T10:04:15.845Z,31.58
2018-08-23T10:07:24.850Z,31.57
2018-08-23T10:10:33.467Z,31.88
2018-08-23T10:13:42.807Z,32.29
2018-08-23T10:16:51.440Z,32.49
2018-08-23T10:20:01.998Z,32.30
2018-08-23T10:23:11.355Z,32.33
2018-08-23T10:26:29.786Z,32.41
2018-08-23T10:29:33.116Z,32.63
2018-08-23T10:32:36.508Z,33.04
2018-08-23T10:35:46.487Z,33.21
2018-08-23T10:38:49.787Z,33.83
2018-08-23T10:41:53.164Z,33.86
2018-08-23T10:44:56.432Z,33.76
2018-08-23T10:48:05.093Z,33.71
2018-08-23T10:51:08.424Z,34.03
2018-08-23T10:54:12.216Z,34.34
2018-08-23T10:57:18.568Z,34.05
2018-08-23T11:00:21.839Z,34.16
2018-08-23T11:03:25.134Z,34.27
2018-08-23T11:06:28.441Z,34.31
2018-08-23T11:09:37.155Z,34.48
2018-08-23T11:12:45.719Z,34.54
2018-08-23T11:15:48.975Z,34.07
2018-08-23T11:18:57.679Z,34.57
2018-08-23T11:22:00.967Z,34.61
2018-08-23T11:25:04.230Z,34.68
2018-08-23T11:28:13.018Z,34.82
2018-08-23T11:31:21.653Z,34.76
2018-08-23T11:34:25.155Z,34.91
2018-08-23T11:37:29.226Z,35.15
2018-08-23T11:40:33.750Z,35.42
2018-08-23T11:43:37.013Z,35.80
2018-08-23T11:46:40.291Z,35.71
2018-08-23T11:49:43.666Z,36.05
2018-08-23T11:52:47.109Z,35.93
2018-08-23T11:55:50.513Z,35.92
2018-08-23T11:58:53.878Z,36.29
2018-08-23T12:01:57.285Z,36.37
2018-08-23T12:05:00.522Z,36.33
2018-08-23T12:08:03.878Z,36.19
2018-08-23T12:11:07.374Z,36.00
2018-08-23T12:14:10.770Z,36.34
2018-08-23T12:17:14.150Z,35.95
2018-08-23T12:20:17.518Z,36.21
2018-08-23T12:23:20.852Z,36.11
2018-08-23T12:26:24.271Z,35.84
2018-08-23T12:29:27.714Z,35.82
2018-08-23T12:32:31.029Z,35.51
2018-08-23T12:35:34.530Z,35.88
2018-08-23T12:38:43.303Z,35.44
2018-08-23T12:41:51.968Z,35.82
2018-08-23T12:44:56.303Z,35.49
2018-08-23T12:47:59.650Z,35.27
2018-08-23T12:51:02.934Z,35.52
2018-08-23T12:54:06.344Z,35.76
2018-08-23T12:57:09.714Z,35.94
2018-08-23T13:00:13.002Z,36.05
2018-08-23T13:03:16.442Z,36.12
2018-08-23T13:06:20.056Z,36.34
2018-08-23T13:09:23.232Z,36.42
2018-08-23T13:12:26.512Z,36.48
2018-08-23T13:15:29.704Z,36.33
2018-08-23T13:18:32.896Z,36.22
2018-08-23T13:21:36.217Z,36.27
2018-08-23T13:24:44.919Z,35.81
2018-08-23T13:27:48.297Z,35.30
2018-08-23T13:30:51.681Z,34.93
2018-08-23T13:33:55.064Z,35.05
2018-08-23T13:36:58.398Z,35.33
2018-08-23T13:40:01.966Z,35.55
2018-08-23T13:43:05.149Z,35.83
2018-08-23T13:46:08.554Z,35.91
2018-08-23T13:49:11.790Z,35.85
2018-08-23T13:52:15.471Z,35.87
2018-08-23T13:55:18.790Z,36.15
2018-08-23T13:58:22.158Z,36.21
2018-08-23T14:01:27.926Z,35.97
2018-08-23T14:04:31.223Z,35.92
2018-08-23T14:07:34.740Z,35.87
2018-08-23T14:10:38.013Z,35.70
2018-08-23T14:13:41.342Z,35.07
2018-08-23T14:16:44.691Z,34.69
2018-08-23T14:19:47.963Z,34.48
2018-08-23T14:22:51.276Z,34.27
2018-08-23T14:25:54.681Z,34.57
2018-08-23T14:28:57.980Z,34.37
2018-08-23T14:32:01.453Z,34.34
2018-08-23T14:35:04.861Z,34.05
2018-08-23T14:38:08.701Z,34.04
2018-08-23T14:41:12.033Z,34.15
2018-08-23T14:44:15.485Z,34.27
2018-08-23T14:47:24.030Z,34.52
2018-08-23T14:50:27.543Z,34.75
2018-08-23T14:53:31.551Z,34.78
2018-08-23T14:56:41.112Z,34.79
2018-08-23T14:59:45.055Z,34.69
2018-08-23T15:02:48.606Z,34.57
2018-08-23T15:05:52.107Z,34.52
2018-08-23T15:08:55.432Z,34.26
2018-08-23T15:12:00.353Z,34.35
2018-08-23T15:15:05.801Z,34.30
2018-08-23T15:18:09.317Z,34.01
2018-08-23T15:21:12.815Z,34.16
2018-08-23T15:24:16.666Z,34.27
2018-08-23T15:27:20.782Z,34.35
2018-08-23T15:30:25.297Z,34.34
2018-08-23T15:33:38.010Z,34.52
2018-08-23T15:36:41.460Z,34.65
2018-08-23T15:39:44.857Z,34.69
2018-08-23T15:42:48.978Z,34.81
2018-08-23T15:45:52.486Z,34.90
2018-08-23T15:48:55.901Z,34.97
2018-08-23T15:52:03.002Z,34.90
2018-08-23T15:55:06.677Z,35.02
2018-08-23T15:58:09.836Z,35.18
2018-08-23T16:01:13.141Z,35.06
2018-08-23T16:04:17.550Z,34.87
2018-08-23T16:07:21.509Z,34.66
2018-08-23T16:10:26.871Z,34.54
2018-08-23T16:13:31.383Z,34.58
2018-08-23T16:16:40.280Z,34.50
2018-08-23T16:19:49.375Z,34.56
2018-08-23T16:22:52.935Z,34.47
2018-08-23T16:25:56.715Z,34.39
2018-08-23T16:29:00.199Z,34.39
2018-08-23T16:32:03.953Z,34.51
2018-08-23T16:35:07.787Z,34.37
2018-08-23T16:38:11.435Z,34.14
2018-08-23T16:41:15.066Z,34.03
2018-08-23T16:44:18.502Z,33.90
2018-08-23T16:47:22.558Z,33.79
2018-08-23T16:50:26.646Z,33.58
2018-08-23T16:53:30.360Z,33.35
2018-08-23T16:56:40.665Z,33.27
2018-08-23T16:59:44.188Z,33.22
2018-08-23T17:02:47.920Z,33.06
2018-08-23T17:05:52.073Z,32.85
2018-08-23T17:08:56.342Z,32.68
2018-08-23T17:12:06.359Z,32.63
2018-08-23T17:15:16.607Z,32.61
2018-08-23T17:18:22.655Z,32.49
2018-08-23T17:21:34.933Z,32.44
2018-08-23T17:24:42.237Z,32.33
2018-08-23T17:27:46.735Z,32.20
2018-08-23T17:30:53.059Z,32.12
2018-08-23T17:34:03.508Z,32.06
2018-08-23T17:37:11.511Z,31.95
2018-08-23T17:40:16.688Z,31.94
2018-08-23T17:43:24.252Z,31.89
2018-08-23T18:01:32.839Z,31.35
2018-08-23T18:04:36.768Z,31.30
2018-08-23T18:07:40.312Z,31.41
2018-08-23T18:10:44.740Z,31.00
2018-08-23T18:13:48.667Z,29.33
2018-08-23T18:16:59.168Z,27.77
2018-08-23T18:20:03.810Z,26.10
2018-08-23T18:23:08.496Z,25.26
2018-08-23T18:26:12.559Z,24.74
2018-08-23T18:29:16.851Z,24.36
2018-08-23T18:32:20.868Z,24.02
2018-08-23T18:35:25.200Z,24.08
2018-08-23T18:38:29.399Z,24.56
2018-08-23T18:41:34.155Z,24.69
2018-08-23T18:44:40.355Z,24.78
2018-08-23T18:47:50.864Z,25.27
2018-08-23T18:50:58.110Z,25.62
2018-08-23T18:54:02.380Z,25.78
2018-08-23T18:57:06.744Z,26.07
2018-08-23T19:00:10.638Z,26.15
2018-08-23T19:03:15.034Z,26.28
2018-08-23T19:06:19.086Z,26.31
2018-08-23T19:09:23.180Z,26.32
2018-08-23T19:12:26.817Z,26.21
2018-08-23T19:15:36.494Z,26.15
2018-08-23T19:18:40.588Z,26.09
2018-08-23T19:21:44.703Z,26.13
2018-08-23T19:24:48.634Z,26.13
2018-08-23T19:27:52.742Z,26.14
2018-08-23T19:30:56.587Z,26.09
2018-08-23T19:34:00.252Z,26.23
2018-08-23T19:37:04.308Z,26.15
2018-08-23T19:40:08.740Z,26.14
2018-08-23T19:46:23.588Z,26.20
2018-08-23T19:49:32.603Z,26.20
2018-08-23T19:52:36.443Z,26.14
2018-08-23T19:55:40.605Z,26.22
2018-08-23T19:58:44.366Z,26.15
2018-08-23T20:01:48.438Z,26.35
2018-08-23T20:04:57.236Z,26.49
2018-08-23T20:08:02.857Z,26.42
2018-08-23T20:11:06.966Z,26.36
2018-08-23T20:14:10.883Z,26.29
2018-08-23T20:17:15.607Z,26.30
2018-08-23T20:20:19.624Z,26.24
2018-08-23T20:23:23.435Z,26.29
2018-08-23T20:26:27.197Z,26.23
2018-08-23T20:29:30.937Z,26.26
2018-08-23T20:32:34.586Z,26.32
2018-08-23T20:35:38.427Z,26.29
2018-08-23T20:38:42.104Z,26.23
2018-08-23T20:41:46.650Z,26.12
2018-08-23T20:45:05.209Z,26.16
2018-08-23T20:48:34.245Z,26.12
2018-08-23T20:51:39.179Z,26.15
2018-08-23T20:54:47.429Z,26.00
2018-08-23T20:58:29.673Z,26.05
2018-08-23T21:05:33.479Z,25.75
2018-08-23T21:08:44.402Z,25.90
2018-08-23T21:11:48.134Z,25.77
2018-08-23T21:14:51.840Z,25.76
2018-08-23T21:30:31.979Z,25.82
2018-08-23T21:33:35.770Z,25.97
2018-08-23T21:36:39.275Z,25.97
2018-08-23T21:39:42.768Z,25.97
2018-08-23T21:42:46.185Z,25.87
2018-08-23T21:45:49.587Z,25.56
2018-08-23T21:48:53.562Z,25.47
2018-08-23T21:51:56.995Z,25.61
2018-08-23T21:55:00.316Z,25.62
2018-08-23T21:58:03.774Z,25.50
2018-08-23T22:01:08.653Z,25.61
2018-08-23T22:04:12.071Z,25.66
2018-08-23T22:07:15.774Z,25.37
2018-08-23T22:10:19.137Z,25.15
2018-08-23T22:13:22.570Z,25.27
2018-08-23T22:16:26.218Z,25.05
2018-08-23T22:19:30.314Z,25.08
2018-08-23T22:22:33.744Z,25.30
2018-08-23T22:25:37.146Z,25.44
2018-08-23T22:28:40.507Z,25.27
2018-08-23T22:31:44.566Z,25.35
2018-08-23T22:34:48.057Z,25.37
2018-08-23T22:37:51.369Z,25.34
2018-08-23T22:40:55.980Z,25.36
2018-08-23T22:43:59.362Z,25.33
2018-08-23T22:47:02.814Z,25.24
2018-08-23T22:50:07.473Z,25.37
2018-08-23T22:53:10.775Z,25.35
2018-08-23T22:56:14.101Z,25.36
2018-08-23T22:59:17.426Z,25.15
2018-08-23T23:02:25.960Z,25.19
2018-08-23T23:05:29.265Z,25.15
2018-08-23T23:08:33.249Z,25.17
2018-08-23T23:11:36.809Z,25.14
2018-08-23T23:14:40.129Z,25.06
2018-08-23T23:17:44.395Z,24.97
2018-08-23T23:20:48.146Z,24.84
2018-08-23T23:23:51.405Z,24.74
2018-08-23T23:26:55.717Z,24.73
2018-08-23T23:29:59.219Z,24.55
2018-08-23T23:33:02.887Z,24.55
2018-08-23T23:36:06.141Z,24.49
2018-08-23T23:39:09.510Z,24.25
2018-08-23T23:42:12.736Z,24.37
2018-08-23T23:45:16.000Z,24.35
2018-08-23T23:48:19.297Z,24.30
2018-08-23T23:51:22.635Z,24.30
2018-08-23T23:54:25.885Z,24.26
2018-08-23T23:57:29.400Z,24.24
